createdAt,value
2022-11-20T16:30:26.024Z,53.00
2022-11-20T16:32:59.078Z,50.42
2022-11-20T16:35:32.224Z,48.92
2022-11-20T16:38:05.265Z,38.92
2022-11-20T16:40:37.905Z,32.45
2022-11-20T16:43:12.395Z,39.70
2022-11-20T16:45:45.597Z,41.60
2022-11-20T16:48:18.557Z,44.40
2022-11-20T16:50:52.475Z,38.83
2022-11-20T16:53:25.425Z,25.55
2022-11-20T16:55:57.956Z,34.90
2022-11-20T16:58:30.888Z,33.78
2022-11-20T17:01:10.832Z,29.58
2022-11-20T17:03:47.806Z,31.70
2022-11-20T17:06:21.566Z,37.22
2022-11-20T17:08:55.257Z,32.97
2022-11-20T17:11:28.489Z,41.17
2022-11-20T17:14:02.655Z,45.05
2022-11-20T17:16:36.023Z,37.83
2022-11-20T17:19:09.331Z,31.73
2022-11-20T17:21:41.850Z,33.55
2022-11-20T17:24:16.469Z,33.38
2022-11-20T17:26:49.233Z,40.63
2022-11-20T17:29:24.578Z,40.78
2022-11-20T17:31:57.066Z,42.45
2022-11-20T17:34:29.919Z,63.53
2022-11-20T17:37:02.723Z,40.92
2022-11-20T17:39:35.734Z,30.88
2022-11-20T17:42:26.940Z,35.65
2022-11-20T17:44:59.783Z,43.53
2022-11-20T17:47:32.329Z,44.58
2022-11-20T17:50:05.565Z,37.90
2022-11-20T17:52:38.108Z,38.63
2022-11-20T17:55:11.068Z,41.65
2022-11-20T17:58:03.127Z,40.95
2022-11-20T18:00:36.639Z,39.60
2022-11-20T18:03:09.173Z,35.97
2022-11-20T18:05:42.151Z,42.22
2022-11-20T18:08:14.672Z,43.80
2022-11-20T18:10:47.606Z,42.58
2022-11-20T18:13:20.135Z,46.78
2022-11-20T18:15:53.031Z,59.35
2022-11-20T18:18:25.579Z,51.85
2022-11-20T18:20:58.482Z,50.97
2022-11-20T18:23:31.134Z,47.40
2022-11-20T18:26:04.008Z,47.42
2022-11-20T18:28:39.675Z,58.42
2022-11-20T18:31:12.880Z,54.40
2022-11-20T18:33:45.486Z,72.38
2022-11-20T18:36:23.144Z,68.57
2022-11-20T18:38:56.919Z,67.40
2022-11-20T18:41:49.626Z,49.42
2022-11-20T18:45:04.725Z,49.05
2022-11-20T18:47:40.530Z,43.13
2022-11-20T18:50:13.043Z,41.38
2022-11-20T18:52:47.176Z,40.67
2022-11-20T18:55:19.751Z,53.78
2022-11-20T18:57:53.050Z,54.80
2022-11-20T19:00:25.559Z,62.42
2022-11-20T19:02:58.459Z,56.25
2022-11-20T19:05:31.337Z,49.40
2022-11-20T19:08:04.472Z,56.05
2022-11-20T19:10:37.940Z,59.08
2022-11-20T19:13:11.143Z,56.47
2022-11-20T19:15:43.702Z,56.72
2022-11-20T19:18:16.692Z,53.83
2022-11-20T19:20:49.352Z,54.80
2022-11-20T19:23:25.102Z,53.88
2022-11-20T19:25:59.516Z,51.08
2022-11-20T19:28:33.239Z,46.92
2022-11-20T19:31:10.526Z,47.27
2022-11-20T19:33:43.490Z,44.13
2022-11-20T19:36:20.768Z,42.00
2022-11-20T19:38:54.264Z,49.35
2022-11-20T19:41:31.842Z,46.92
2022-11-20T19:44:06.121Z,42.78
2022-11-20T19:46:39.653Z,44.05
2022-11-20T19:49:13.655Z,45.35
2022-11-20T19:51:47.933Z,52.67
2022-11-20T19:54:20.922Z,47.78
2022-11-20T19:56:53.401Z,127.53
2022-11-20T19:59:26.653Z,72.40
2022-11-20T20:01:59.829Z,75.28
2022-11-20T20:04:33.349Z,74.03
2022-11-20T20:07:06.676Z,76.30
2022-11-20T20:09:39.583Z,72.22
2022-11-20T20:12:12.164Z,77.07
2022-11-20T20:14:45.419Z,74.45
2022-11-20T20:17:17.960Z,70.82
2022-11-20T20:19:50.892Z,76.82
2022-11-20T20:22:23.415Z,72.75
2022-11-20T20:24:56.499Z,72.47
2022-11-20T20:27:29.008Z,71.28
2022-11-20T20:30:02.403Z,68.88
2022-11-20T20:32:34.928Z,64.88
2022-11-20T20:35:08.044Z,70.20
2022-11-20T20:37:40.569Z,67.18
2022-11-20T20:40:15.484Z,54.90
2022-11-20T20:42:48.169Z,49.35
2022-11-20T20:45:21.013Z,55.38
2022-11-20T20:47:53.590Z,52.45
2022-11-20T20:50:26.438Z,51.00
2022-11-20T20:52:58.966Z,51.33
2022-11-20T20:55:34.058Z,47.57
2022-11-20T20:58:06.673Z,48.97
2022-11-20T21:00:39.979Z,46.58
2022-11-20T21:03:12.510Z,42.75
2022-11-20T21:05:45.875Z,50.00
2022-11-20T21:08:28.750Z,42.58
2022-11-20T21:11:03.556Z,45.33
2022-11-20T21:13:36.936Z,43.80
2022-11-20T21:16:10.274Z,43.45
2022-11-20T21:18:43.216Z,40.53
2022-11-20T21:21:35.084Z,53.25
2022-11-20T21:24:07.898Z,66.68
2022-11-20T21:26:41.020Z,75.85
2022-11-20T21:29:13.571Z,77.40
2022-11-20T21:31:46.494Z,80.68
2022-11-20T21:34:19.492Z,135.00
2022-11-20T21:36:52.434Z,140.30
2022-11-20T21:39:25.184Z,107.85
2022-11-20T21:41:58.225Z,101.57
2022-11-20T21:44:31.849Z,130.83
2022-11-20T21:47:05.064Z,90.32
2022-11-20T21:49:39.406Z,81.85
2022-11-20T21:52:12.788Z,95.10
2022-11-20T21:54:45.389Z,79.70
2022-11-20T21:57:18.212Z,90.72
2022-11-20T21:59:50.875Z,73.03
2022-11-20T22:02:23.811Z,72.40
2022-11-20T22:04:56.639Z,82.47
2022-11-20T22:07:29.631Z,86.93
2022-11-20T22:10:02.312Z,89.93
2022-11-20T22:12:35.121Z,59.33
2022-11-20T22:15:07.872Z,72.95
2022-11-20T22:18:03.927Z,60.10
2022-11-20T22:20:36.468Z,65.88
2022-11-20T22:23:09.431Z,74.63
2022-11-20T22:25:41.948Z,80.13
2022-11-20T22:28:14.830Z,67.05
2022-11-20T22:30:47.243Z,48.25
2022-11-20T22:33:20.073Z,48.85
2022-11-20T22:35:52.601Z,49.72
2022-11-20T22:38:29.533Z,53.63
2022-11-20T22:41:03.515Z,59.88
2022-11-20T22:43:36.528Z,53.08
2022-11-20T22:46:10.655Z,54.92
2022-11-20T22:48:44.869Z,61.88
2022-11-20T22:51:18.658Z,68.07
2022-11-20T22:53:51.683Z,49.95
2022-11-20T22:56:24.608Z,70.82
2022-11-20T22:58:57.624Z,64.00
2022-11-20T23:01:31.242Z,53.65
2022-11-20T23:04:05.885Z,68.78
2022-11-20T23:06:38.663Z,65.57
2022-11-20T23:09:13.195Z,60.65
2022-11-20T23:11:45.630Z,50.78
2022-11-20T23:14:19.830Z,47.97
2022-11-20T23:16:54.070Z,49.10
2022-11-20T23:19:27.026Z,41.70
2022-11-20T23:21:59.527Z,53.08
2022-11-20T23:24:32.444Z,46.65
2022-11-20T23:27:05.062Z,60.45
2022-11-20T23:29:37.875Z,57.40
2022-11-20T23:32:10.381Z,49.63
2022-11-20T23:34:43.282Z,46.88
2022-11-20T23:37:15.793Z,45.20
2022-11-20T23:39:48.787Z,48.90
2022-11-20T23:42:21.279Z,45.90
2022-11-20T23:44:54.208Z,50.72
2022-11-20T23:47:26.734Z,42.17
2022-11-20T23:49:59.703Z,39.13
2022-11-20T23:52:32.167Z,40.80
2022-11-20T23:55:05.522Z,47.95
2022-11-20T23:57:38.043Z,43.17
